sensor_id;sensor_type;location;lat;lon;timestamp;P1;durP1;ratioP1;P2;durP2;ratioP2
6223;SDS011;3145;42.726;23.342;2023-05-18T00:02:16;3.00;;;2.70;;
6223;SDS011;3145;42.726;23.342;2023-05-18T00:04:45;2.83;;;2.63;;
6223;SDS011;3145;42.726;23.342;2023-05-18T00:07:12;3.70;;;2.20;;
6223;SDS011;3145;42.726;23.342;2023-05-18T00:09:40;2.40;;;2.30;;
6223;SDS011;3145;42.726;23.342;2023-05-18T00:12:07;2.60;;;2.40;;
6223;SDS011;3145;42.726;23.342;2023-05-18T00:14:35;2.73;;;2.47;;
6223;SDS011;3145;42.726;23.342;2023-05-18T00:17:02;3.70;;;3.27;;
6223;SDS011;3145;42.726;23.342;2023-05-18T00:19:29;5.30;;;2.60;;
6223;SDS011;3145;42.726;23.342;2023-05-18T00:21:55;2.10;;;2.00;;
6223;SDS011;3145;42.726;23.342;2023-05-18T00:24:22;1.83;;;1.73;;
6223;SDS011;3145;42.726;23.342;2023-05-18T00:26:50;2.37;;;2.23;;
6223;SDS011;3145;42.726;23.342;2023-05-18T00:29:17;3.40;;;2.70;;
6223;SDS011;3145;42.726;23.342;2023-05-18T00:31:44;5.63;;;3.27;;
6223;SDS011;3145;42.726;23.342;2023-05-18T00:34:11;3.33;;;2.73;;
6223;SDS011;3145;42.726;23.342;2023-05-18T00:36:39;2.80;;;2.60;;
6223;SDS011;3145;42.726;23.342;2023-05-18T00:39:06;6.00;;;3.33;;
6223;SDS011;3145;42.726;23.342;2023-05-18T00:41:34;3.23;;;3.03;;
6223;SDS011;3145;42.726;23.342;2023-05-18T00:44:02;2.97;;;2.77;;
6223;SDS011;3145;42.726;23.342;2023-05-18T00:46:29;3.17;;;2.97;;
6223;SDS011;3145;42.726;23.342;2023-05-18T00:48:56;3.03;;;2.77;;
6223;SDS011;3145;42.726;23.342;2023-05-18T00:51:25;5.00;;;3.07;;
6223;SDS011;3145;42.726;23.342;2023-05-18T00:53:53;2.50;;;2.30;;
6223;SDS011;3145;42.726;23.342;2023-05-18T00:56:21;2.60;;;2.40;;
6223;SDS011;3145;42.726;23.342;2023-05-18T00:58:49;2.97;;;1.90;;
6223;SDS011;3145;42.726;23.342;2023-05-18T01:01:18;1.80;;;1.70;;
6223;SDS011;3145;42.726;23.342;2023-05-18T01:03:48;1.80;;;1.70;;
6223;SDS011;3145;42.726;23.342;2023-05-18T01:06:20;1.50;;;1.40;;
6223;SDS011;3145;42.726;23.342;2023-05-18T01:08:49;2.80;;;1.93;;
6223;SDS011;3145;42.726;23.342;2023-05-18T01:11:18;2.57;;;1.70;;
6223;SDS011;3145;42.726;23.342;2023-05-18T01:13:53;1.70;;;1.60;;
6223;SDS011;3145;42.726;23.342;2023-05-18T01:16:29;1.30;;;1.20;;
6223;SDS011;3145;42.726;23.342;2023-05-18T01:19:02;1.87;;;1.50;;
6223;SDS011;3145;42.726;23.342;2023-05-18T01:21:43;1.67;;;1.53;;
6223;SDS011;3145;42.726;23.342;2023-05-18T01:24:23;1.60;;;1.50;;
6223;SDS011;3145;42.726;23.342;2023-05-18T01:26:59;1.40;;;1.30;;
6223;SDS011;3145;42.726;23.342;2023-05-18T01:29:26;1.63;;;1.53;;
6223;SDS011;3145;42.726;23.342;2023-05-18T01:31:55;1.50;;;1.40;;
6223;SDS011;3145;42.726;23.342;2023-05-18T01:34:22;3.77;;;1.60;;
6223;SDS011;3145;42.726;23.342;2023-05-18T01:36:49;1.77;;;1.60;;
6223;SDS011;3145;42.726;23.342;2023-05-18T01:39:16;3.10;;;1.83;;
6223;SDS011;3145;42.726;23.342;2023-05-18T01:41:45;1.53;;;1.43;;
6223;SDS011;3145;42.726;23.342;2023-05-18T01:44:19;2.63;;;1.47;;
6223;SDS011;3145;42.726;23.342;2023-05-18T01:46:51;2.47;;;1.80;;
6223;SDS011;3145;42.726;23.342;2023-05-18T01:49:26;1.73;;;1.50;;
6223;SDS011;3145;42.726;23.342;2023-05-18T01:52:03;1.63;;;1.53;;
6223;SDS011;3145;42.726;23.342;2023-05-18T01:54:32;1.57;;;1.47;;
6223;SDS011;3145;42.726;23.342;2023-05-18T01:57:02;1.47;;;1.37;;
6223;SDS011;3145;42.726;23.342;2023-05-18T01:59:33;1.50;;;1.40;;
6223;SDS011;3145;42.726;23.342;2023-05-18T02:02:01;2.10;;;1.90;;
6223;SDS011;3145;42.726;23.342;2023-05-18T02:04:28;2.23;;;1.93;;
6223;SDS011;3145;42.726;23.342;2023-05-18T02:06:55;2.03;;;1.93;;
6223;SDS011;3145;42.726;23.342;2023-05-18T02:09:22;1.83;;;1.73;;
6223;SDS011;3145;42.726;23.342;2023-05-18T02:11:49;2.70;;;1.90;;
6223;SDS011;3145;42.726;23.342;2023-05-18T02:14:16;2.03;;;1.83;;
6223;SDS011;3145;42.726;23.342;2023-05-18T02:16:44;2.67;;;2.07;;
6223;SDS011;3145;42.726;23.342;2023-05-18T02:19:16;1.80;;;1.70;;
6223;SDS011;3145;42.726;23.342;2023-05-18T02:21:43;1.77;;;1.57;;
6223;SDS011;3145;42.726;23.342;2023-05-18T02:24:10;3.73;;;1.83;;
6223;SDS011;3145;42.726;23.342;2023-05-18T02:26:37;1.83;;;1.73;;
6223;SDS011;3145;42.726;23.342;2023-05-18T02:29:04;2.60;;;1.67;;
6223;SDS011;3145;42.726;23.342;2023-05-18T02:31:33;2.20;;;2.00;;
6223;SDS011;3145;42.726;23.342;2023-05-18T02:34:02;1.90;;;1.80;;
6223;SDS011;3145;42.726;23.342;2023-05-18T02:36:29;1.97;;;1.77;;
6223;SDS011;3145;42.726;23.342;2023-05-18T02:39:01;1.83;;;1.73;;
6223;SDS011;3145;42.726;23.342;2023-05-18T02:41:28;1.83;;;1.70;;
6223;SDS011;3145;42.726;23.342;2023-05-18T02:43:54;2.70;;;1.50;;
6223;SDS011;3145;42.726;23.342;2023-05-18T02:46:21;1.83;;;1.60;;
6223;SDS011;3145;42.726;23.342;2023-05-18T02:48:48;3.63;;;2.03;;
6223;SDS011;3145;42.726;23.342;2023-05-18T02:51:16;1.83;;;1.67;;
6223;SDS011;3145;42.726;23.342;2023-05-18T02:53:43;1.77;;;1.50;;
6223;SDS011;3145;42.726;23.342;2023-05-18T02:56:10;1.97;;;1.50;;
6223;SDS011;3145;42.726;23.342;2023-05-18T02:58:37;1.83;;;1.73;;
6223;SDS011;3145;42.726;23.342;2023-05-18T03:01:04;2.90;;;1.80;;
6223;SDS011;3145;42.726;23.342;2023-05-18T03:03:32;2.53;;;1.63;;
6223;SDS011;3145;42.726;23.342;2023-05-18T03:05:59;2.27;;;1.80;;
6223;SDS011;3145;42.726;23.342;2023-05-18T03:08:28;3.07;;;2.30;;
6223;SDS011;3145;42.726;23.342;2023-05-18T03:10:55;2.20;;;2.03;;
6223;SDS011;3145;42.726;23.342;2023-05-18T03:13:23;2.17;;;2.07;;
6223;SDS011;3145;42.726;23.342;2023-05-18T03:15:51;2.27;;;1.80;;
6223;SDS011;3145;42.726;23.342;2023-05-18T03:18:18;3.17;;;2.17;;
6223;SDS011;3145;42.726;23.342;2023-05-18T03:20:44;4.87;;;1.90;;
6223;SDS011;3145;42.726;23.342;2023-05-18T03:23:11;3.10;;;2.20;;
6223;SDS011;3145;42.726;23.342;2023-05-18T03:25:40;2.57;;;2.37;;
6223;SDS011;3145;42.726;23.342;2023-05-18T03:28:09;3.20;;;2.90;;
6223;SDS011;3145;42.726;23.342;2023-05-18T03:30:39;4.20;;;3.80;;
6223;SDS011;3145;42.726;23.342;2023-05-18T03:33:05;3.70;;;3.10;;
6223;SDS011;3145;42.726;23.342;2023-05-18T03:35:32;2.90;;;2.70;;
6223;SDS011;3145;42.726;23.342;2023-05-18T03:37:59;3.00;;;2.80;;
6223;SDS011;3145;42.726;23.342;2023-05-18T03:40:26;3.10;;;2.90;;
6223;SDS011;3145;42.726;23.342;2023-05-18T03:42:54;8.07;;;3.20;;
6223;SDS011;3145;42.726;23.342;2023-05-18T03:45:21;2.90;;;2.67;;
6223;SDS011;3145;42.726;23.342;2023-05-18T03:47:48;3.27;;;3.07;;
6223;SDS011;3145;42.726;23.342;2023-05-18T03:50:15;4.70;;;3.10;;
6223;SDS011;3145;42.726;23.342;2023-05-18T03:52:42;3.60;;;3.30;;
6223;SDS011;3145;42.726;23.342;2023-05-18T03:55:10;4.10;;;3.80;;
6223;SDS011;3145;42.726;23.342;2023-05-18T03:57:37;6.17;;;3.40;;
6223;SDS011;3145;42.726;23.342;2023-05-18T04:00:05;6.23;;;5.73;;
6223;SDS011;3145;42.726;23.342;2023-05-18T04:02:36;4.73;;;4.40;;
6223;SDS011;3145;42.726;23.342;2023-05-18T04:05:03;5.43;;;4.60;;
6223;SDS011;3145;42.726;23.342;2023-05-18T04:07:30;4.50;;;4.17;;
6223;SDS011;3145;42.726;23.342;2023-05-18T04:09:56;5.40;;;4.17;;
6223;SDS011;3145;42.726;23.342;2023-05-18T04:12:23;3.87;;;3.63;;
6223;SDS011;3145;42.726;23.342;2023-05-18T04:14:50;3.53;;;3.33;;
6223;SDS011;3145;42.726;23.342;2023-05-18T04:17:19;3.43;;;3.17;;
6223;SDS011;3145;42.726;23.342;2023-05-18T04:19:46;3.50;;;3.20;;
6223;SDS011;3145;42.726;23.342;2023-05-18T04:22:14;3.70;;;3.40;;
6223;SDS011;3145;42.726;23.342;2023-05-18T04:24:41;5.10;;;2.90;;
6223;SDS011;3145;42.726;23.342;2023-05-18T04:27:09;3.83;;;3.53;;
6223;SDS011;3145;42.726;23.342;2023-05-18T04:29:36;3.53;;;3.33;;
6223;SDS011;3145;42.726;23.342;2023-05-18T04:32:04;3.53;;;3.23;;
6223;SDS011;3145;42.726;23.342;2023-05-18T04:34:33;4.10;;;3.80;;
6223;SDS011;3145;42.726;23.342;2023-05-18T04:37:01;3.93;;;3.63;;
6223;SDS011;3145;42.726;23.342;2023-05-18T04:39:29;5.83;;;5.33;;
6223;SDS011;3145;42.726;23.342;2023-05-18T04:41:56;7.97;;;7.17;;
6223;SDS011;3145;42.726;23.342;2023-05-18T04:44:23;17.37;;;10.40;;
6223;SDS011;3145;42.726;23.342;2023-05-18T04:46:51;11.73;;;9.43;;
6223;SDS011;3145;42.726;23.342;2023-05-18T04:49:18;10.73;;;8.53;;
6223;SDS011;3145;42.726;23.342;2023-05-18T04:51:48;9.77;;;6.70;;
6223;SDS011;3145;42.726;23.342;2023-05-18T04:54:20;3.97;;;3.57;;
6223;SDS011;3145;42.726;23.342;2023-05-18T04:56:47;6.87;;;6.27;;
6223;SDS011;3145;42.726;23.342;2023-05-18T04:59:14;6.40;;;4.50;;
6223;SDS011;3145;42.726;23.342;2023-05-18T05:01:41;6.07;;;5.17;;
6223;SDS011;3145;42.726;23.342;2023-05-18T05:04:07;5.67;;;4.00;;
6223;SDS011;3145;42.726;23.342;2023-05-18T05:06:34;6.23;;;4.97;;
6223;SDS011;3145;42.726;23.342;2023-05-18T05:09:02;4.73;;;4.13;;
6223;SDS011;3145;42.726;23.342;2023-05-18T05:11:29;4.40;;;4.10;;
6223;SDS011;3145;42.726;23.342;2023-05-18T05:13:56;5.83;;;4.63;;
6223;SDS011;3145;42.726;23.342;2023-05-18T05:16:23;4.03;;;3.77;;
6223;SDS011;3145;42.726;23.342;2023-05-18T05:18:50;5.10;;;4.70;;
6223;SDS011;3145;42.726;23.342;2023-05-18T05:21:16;7.97;;;4.70;;
6223;SDS011;3145;42.726;23.342;2023-05-18T05:23:43;8.03;;;4.27;;
6223;SDS011;3145;42.726;23.342;2023-05-18T05:26:11;4.50;;;4.00;;
6223;SDS011;3145;42.726;23.342;2023-05-18T05:28:38;9.37;;;8.57;;
6223;SDS011;3145;42.726;23.342;2023-05-18T05:31:05;6.53;;;5.70;;
6223;SDS011;3145;42.726;23.342;2023-05-18T05:33:33;4.60;;;4.30;;
6223;SDS011;3145;42.726;23.342;2023-05-18T05:36:00;5.77;;;5.27;;
6223;SDS011;3145;42.726;23.342;2023-05-18T05:38:28;5.20;;;4.67;;
6223;SDS011;3145;42.726;23.342;2023-05-18T05:40:55;5.67;;;4.10;;
6223;SDS011;3145;42.726;23.342;2023-05-18T05:43:23;7.30;;;3.63;;
6223;SDS011;3145;42.726;23.342;2023-05-18T05:45:50;5.17;;;4.10;;
6223;SDS011;3145;42.726;23.342;2023-05-18T05:48:17;6.27;;;4.73;;
6223;SDS011;3145;42.726;23.342;2023-05-18T05:50:44;7.63;;;4.50;;
6223;SDS011;3145;42.726;23.342;2023-05-18T05:53:11;4.80;;;4.10;;
6223;SDS011;3145;42.726;23.342;2023-05-18T05:55:41;6.37;;;5.00;;
6223;SDS011;3145;42.726;23.342;2023-05-18T05:58:08;5.20;;;4.80;;
6223;SDS011;3145;42.726;23.342;2023-05-18T06:00:36;4.70;;;4.10;;
6223;SDS011;3145;42.726;23.342;2023-05-18T06:03:03;4.70;;;4.30;;
6223;SDS011;3145;42.726;23.342;2023-05-18T06:05:30;7.33;;;5.20;;
6223;SDS011;3145;42.726;23.342;2023-05-18T06:07:57;6.00;;;5.60;;
6223;SDS011;3145;42.726;23.342;2023-05-18T06:10:24;6.67;;;6.10;;
6223;SDS011;3145;42.726;23.342;2023-05-18T06:12:51;7.60;;;6.90;;
6223;SDS011;3145;42.726;23.342;2023-05-18T06:15:17;7.33;;;6.67;;
6223;SDS011;3145;42.726;23.342;2023-05-18T06:17:46;6.53;;;6.00;;
6223;SDS011;3145;42.726;23.342;2023-05-18T06:20:13;8.30;;;7.50;;
6223;SDS011;3145;42.726;23.342;2023-05-18T06:22:39;9.20;;;7.40;;
6223;SDS011;3145;42.726;23.342;2023-05-18T06:25:08;6.30;;;5.73;;
6223;SDS011;3145;42.726;23.342;2023-05-18T06:27:35;8.07;;;6.67;;
6223;SDS011;3145;42.726;23.342;2023-05-18T06:30:02;8.40;;;7.57;;
6223;SDS011;3145;42.726;23.342;2023-05-18T06:32:31;8.43;;;7.17;;
6223;SDS011;3145;42.726;23.342;2023-05-18T06:34:59;7.10;;;6.40;;
6223;SDS011;3145;42.726;23.342;2023-05-18T06:37:27;10.93;;;6.80;;
6223;SDS011;3145;42.726;23.342;2023-05-18T06:39:54;7.37;;;6.70;;
6223;SDS011;3145;42.726;23.342;2023-05-18T06:42:21;10.27;;;7.03;;
6223;SDS011;3145;42.726;23.342;2023-05-18T06:44:48;11.40;;;7.40;;
6223;SDS011;3145;42.726;23.342;2023-05-18T06:47:15;9.60;;;8.67;;
6223;SDS011;3145;42.726;23.342;2023-05-18T06:49:41;8.10;;;7.30;;
6223;SDS011;3145;42.726;23.342;2023-05-18T06:52:10;10.03;;;8.20;;
6223;SDS011;3145;42.726;23.342;2023-05-18T06:54:37;8.07;;;7.17;;
6223;SDS011;3145;42.726;23.342;2023-05-18T06:57:04;8.43;;;7.77;;
6223;SDS011;3145;42.726;23.342;2023-05-18T06:59:31;11.03;;;8.33;;
6223;SDS011;3145;42.726;23.342;2023-05-18T07:01:58;10.13;;;9.20;;
6223;SDS011;3145;42.726;23.342;2023-05-18T07:04:25;9.77;;;8.80;;
6223;SDS011;3145;42.726;23.342;2023-05-18T07:06:52;10.60;;;9.50;;
6223;SDS011;3145;42.726;23.342;2023-05-18T07:09:21;11.20;;;10.00;;
6223;SDS011;3145;42.726;23.342;2023-05-18T07:11:48;10.93;;;9.57;;
6223;SDS011;3145;42.726;23.342;2023-05-18T07:14:15;10.07;;;9.17;;
6223;SDS011;3145;42.726;23.342;2023-05-18T07:16:41;12.43;;;9.13;;
6223;SDS011;3145;42.726;23.342;2023-05-18T07:19:11;11.30;;;10.30;;
6223;SDS011;3145;42.726;23.342;2023-05-18T07:21:38;11.10;;;9.93;;
6223;SDS011;3145;42.726;23.342;2023-05-18T07:24:04;11.53;;;9.70;;
6223;SDS011;3145;42.726;23.342;2023-05-18T07:26:33;10.80;;;9.80;;
6223;SDS011;3145;42.726;23.342;2023-05-18T07:28:59;13.97;;;10.30;;
6223;SDS011;3145;42.726;23.342;2023-05-18T07:31:26;13.17;;;9.57;;
6223;SDS011;3145;42.726;23.342;2023-05-18T07:33:53;12.87;;;9.37;;
6223;SDS011;3145;42.726;23.342;2023-05-18T07:36:20;12.13;;;10.97;;
6223;SDS011;3145;42.726;23.342;2023-05-18T07:38:46;13.53;;;11.97;;
6223;SDS011;3145;42.726;23.342;2023-05-18T07:41:17;10.67;;;9.60;;
6223;SDS011;3145;42.726;23.342;2023-05-18T07:43:45;9.63;;;8.73;;
6223;SDS011;3145;42.726;23.342;2023-05-18T07:46:11;13.10;;;10.00;;
6223;SDS011;3145;42.726;23.342;2023-05-18T07:48:38;11.00;;;10.00;;
6223;SDS011;3145;42.726;23.342;2023-05-18T07:51:05;8.87;;;7.97;;
6223;SDS011;3145;42.726;23.342;2023-05-18T07:53:32;14.87;;;9.87;;
6223;SDS011;3145;42.726;23.342;2023-05-18T07:55:58;9.97;;;9.07;;
6223;SDS011;3145;42.726;23.342;2023-05-18T07:58:25;11.03;;;9.97;;
6223;SDS011;3145;42.726;23.342;2023-05-18T08:00:53;11.77;;;10.67;;
6223;SDS011;3145;42.726;23.342;2023-05-18T08:03:20;13.30;;;9.37;;
6223;SDS011;3145;42.726;23.342;2023-05-18T08:05:47;11.47;;;10.47;;
6223;SDS011;3145;42.726;23.342;2023-05-18T08:08:14;28.87;;;21.03;;
6223;SDS011;3145;42.726;23.342;2023-05-18T08:10:40;25.60;;;19.23;;
6223;SDS011;3145;42.726;23.342;2023-05-18T08:13:07;32.87;;;23.47;;
6223;SDS011;3145;42.726;23.342;2023-05-18T08:15:34;31.93;;;23.30;;
6223;SDS011;3145;42.726;23.342;2023-05-18T08:18:04;26.23;;;21.57;;
6223;SDS011;3145;42.726;23.342;2023-05-18T08:20:30;16.50;;;14.47;;
6223;SDS011;3145;42.726;23.342;2023-05-18T08:22:57;14.40;;;11.03;;
6223;SDS011;3145;42.726;23.342;2023-05-18T08:25:24;14.50;;;9.77;;
6223;SDS011;3145;42.726;23.342;2023-05-18T08:27:51;12.53;;;8.30;;
6223;SDS011;3145;42.726;23.342;2023-05-18T08:30:18;9.47;;;8.23;;
6223;SDS011;3145;42.726;23.342;2023-05-18T08:32:45;11.40;;;10.27;;
6223;SDS011;3145;42.726;23.342;2023-05-18T08:35:13;8.20;;;7.50;;
6223;SDS011;3145;42.726;23.342;2023-05-18T08:37:40;9.73;;;8.73;;
6223;SDS011;3145;42.726;23.342;2023-05-18T08:40:07;9.93;;;8.93;;
6223;SDS011;3145;42.726;23.342;2023-05-18T08:42:37;10.97;;;8.30;;
6223;SDS011;3145;42.726;23.342;2023-05-18T08:45:10;9.53;;;8.73;;
6223;SDS011;3145;42.726;23.342;2023-05-18T08:47:40;8.47;;;7.30;;
6223;SDS011;3145;42.726;23.342;2023-05-18T08:50:07;8.17;;;7.47;;
6223;SDS011;3145;42.726;23.342;2023-05-18T08:52:40;10.37;;;9.30;;
6223;SDS011;3145;42.726;23.342;2023-05-18T08:55:11;10.03;;;8.00;;
6223;SDS011;3145;42.726;23.342;2023-05-18T08:57:40;9.33;;;7.47;;
6223;SDS011;3145;42.726;23.342;2023-05-18T09:00:09;8.60;;;7.80;;
6223;SDS011;3145;42.726;23.342;2023-05-18T09:02:37;7.83;;;7.23;;
6223;SDS011;3145;42.726;23.342;2023-05-18T09:05:05;12.17;;;8.47;;
6223;SDS011;3145;42.726;23.342;2023-05-18T09:07:32;13.60;;;8.17;;
6223;SDS011;3145;42.726;23.342;2023-05-18T09:10:01;9.43;;;8.70;;
6223;SDS011;3145;42.726;23.342;2023-05-18T09:12:28;15.20;;;7.87;;
6223;SDS011;3145;42.726;23.342;2023-05-18T09:14:58;12.40;;;10.17;;
6223;SDS011;3145;42.726;23.342;2023-05-18T09:17:25;13.20;;;10.13;;
6223;SDS011;3145;42.726;23.342;2023-05-18T09:19:52;11.50;;;8.73;;
6223;SDS011;3145;42.726;23.342;2023-05-18T09:22:19;8.27;;;7.47;;
6223;SDS011;3145;42.726;23.342;2023-05-18T09:24:46;14.57;;;7.77;;
6223;SDS011;3145;42.726;23.342;2023-05-18T09:27:15;9.57;;;7.87;;
6223;SDS011;3145;42.726;23.342;2023-05-18T09:29:51;26.63;;;18.30;;
6223;SDS011;3145;42.726;23.342;2023-05-18T09:32:19;59.30;;;26.50;;
6223;SDS011;3145;42.726;23.342;2023-05-18T09:34:46;11.83;;;9.40;;
6223;SDS011;3145;42.726;23.342;2023-05-18T09:37:15;18.03;;;9.00;;
6223;SDS011;3145;42.726;23.342;2023-05-18T09:39:42;9.40;;;8.43;;
6223;SDS011;3145;42.726;23.342;2023-05-18T09:42:09;8.60;;;7.80;;
6223;SDS011;3145;42.726;23.342;2023-05-18T09:44:37;11.30;;;9.07;;
6223;SDS011;3145;42.726;23.342;2023-05-18T09:47:06;10.77;;;9.10;;
6223;SDS011;3145;42.726;23.342;2023-05-18T09:49:34;7.60;;;6.93;;
6223;SDS011;3145;42.726;23.342;2023-05-18T09:52:01;11.73;;;9.50;;
6223;SDS011;3145;42.726;23.342;2023-05-18T09:54:33;11.63;;;8.23;;
6223;SDS011;3145;42.726;23.342;2023-05-18T09:57:01;8.67;;;7.97;;
6223;SDS011;3145;42.726;23.342;2023-05-18T09:59:28;13.17;;;8.07;;
6223;SDS011;3145;42.726;23.342;2023-05-18T10:01:57;12.37;;;11.27;;
6223;SDS011;3145;42.726;23.342;2023-05-18T10:04:33;10.60;;;9.60;;
6223;SDS011;3145;42.726;23.342;2023-05-18T10:07:01;10.37;;;9.40;;
6223;SDS011;3145;42.726;23.342;2023-05-18T10:09:28;11.97;;;10.60;;
6223;SDS011;3145;42.726;23.342;2023-05-18T10:11:55;11.43;;;8.67;;
6223;SDS011;3145;42.726;23.342;2023-05-18T10:14:22;12.77;;;9.73;;
6223;SDS011;3145;42.726;23.342;2023-05-18T10:16:51;11.53;;;10.33;;
6223;SDS011;3145;42.726;23.342;2023-05-18T10:19:19;15.27;;;11.87;;
6223;SDS011;3145;42.726;23.342;2023-05-18T10:21:46;10.10;;;9.10;;
6223;SDS011;3145;42.726;23.342;2023-05-18T10:24:14;14.90;;;10.90;;
6223;SDS011;3145;42.726;23.342;2023-05-18T10:26:46;18.00;;;9.73;;
6223;SDS011;3145;42.726;23.342;2023-05-18T10:29:14;11.47;;;10.30;;
6223;SDS011;3145;42.726;23.342;2023-05-18T10:31:42;13.63;;;10.33;;
6223;SDS011;3145;42.726;23.342;2023-05-18T10:34:10;9.73;;;8.77;;
6223;SDS011;3145;42.726;23.342;2023-05-18T10:36:39;10.50;;;9.27;;
6223;SDS011;3145;42.726;23.342;2023-05-18T10:39:07;11.17;;;10.13;;
6223;SDS011;3145;42.726;23.342;2023-05-18T10:41:35;14.27;;;10.43;;
6223;SDS011;3145;42.726;23.342;2023-05-18T10:44:03;14.90;;;10.47;;
6223;SDS011;3145;42.726;23.342;2023-05-18T10:46:31;13.60;;;11.27;;
6223;SDS011;3145;42.726;23.342;2023-05-18T10:49:00;17.00;;;11.97;;
6223;SDS011;3145;42.726;23.342;2023-05-18T10:51:29;17.27;;;12.47;;
6223;SDS011;3145;42.726;23.342;2023-05-18T10:54:03;20.80;;;13.10;;
6223;SDS011;3145;42.726;23.342;2023-05-18T10:56:37;19.07;;;14.00;;
6223;SDS011;3145;42.726;23.342;2023-05-18T10:59:05;19.93;;;15.20;;
6223;SDS011;3145;42.726;23.342;2023-05-18T11:01:33;23.90;;;15.30;;
6223;SDS011;3145;42.726;23.342;2023-05-18T11:04:00;18.20;;;12.70;;
6223;SDS011;3145;42.726;23.342;2023-05-18T11:06:27;20.53;;;11.90;;
6223;SDS011;3145;42.726;23.342;2023-05-18T11:08:54;18.83;;;12.17;;
6223;SDS011;3145;42.726;23.342;2023-05-18T11:11:23;15.93;;;13.07;;
6223;SDS011;3145;42.726;23.342;2023-05-18T11:13:50;15.60;;;12.50;;
6223;SDS011;3145;42.726;23.342;2023-05-18T11:16:17;20.37;;;12.97;;
6223;SDS011;3145;42.726;23.342;2023-05-18T11:18:45;16.07;;;14.33;;
6223;SDS011;3145;42.726;23.342;2023-05-18T11:21:20;20.90;;;15.73;;
6223;SDS011;3145;42.726;23.342;2023-05-18T11:26:52;18.13;;;13.20;;
6223;SDS011;3145;42.726;23.342;2023-05-18T11:29:20;11.07;;;9.60;;
6223;SDS011;3145;42.726;23.342;2023-05-18T11:31:49;11.50;;;7.33;;
6223;SDS011;3145;42.726;23.342;2023-05-18T11:34:32;8.07;;;6.23;;
6223;SDS011;3145;42.726;23.342;2023-05-18T11:37:08;6.33;;;5.83;;
6223;SDS011;3145;42.726;23.342;2023-05-18T11:39:36;7.00;;;6.37;;
6223;SDS011;3145;42.726;23.342;2023-05-18T11:42:05;17.00;;;10.20;;
6223;SDS011;3145;42.726;23.342;2023-05-18T11:44:33;24.63;;;16.07;;
6223;SDS011;3145;42.726;23.342;2023-05-18T11:47:01;11.57;;;8.53;;
6223;SDS011;3145;42.726;23.342;2023-05-18T11:49:29;17.70;;;9.90;;
6223;SDS011;3145;42.726;23.342;2023-05-18T11:52:03;28.43;;;10.63;;
6223;SDS011;3145;42.726;23.342;2023-05-18T11:54:38;22.53;;;12.30;;
6223;SDS011;3145;42.726;23.342;2023-05-18T11:57:09;23.13;;;15.13;;
6223;SDS011;3145;42.726;23.342;2023-05-18T11:59:37;37.67;;;20.23;;
6223;SDS011;3145;42.726;23.342;2023-05-18T12:02:05;21.53;;;12.77;;
6223;SDS011;3145;42.726;23.342;2023-05-18T12:04:35;10.10;;;9.10;;
6223;SDS011;3145;42.726;23.342;2023-05-18T12:07:08;35.60;;;11.00;;
6223;SDS011;3145;42.726;23.342;2023-05-18T12:09:36;17.20;;;7.93;;
6223;SDS011;3145;42.726;23.342;2023-05-18T12:12:06;9.17;;;7.10;;
6223;SDS011;3145;42.726;23.342;2023-05-18T12:14:36;15.97;;;7.90;;
6223;SDS011;3145;42.726;23.342;2023-05-18T12:17:04;7.77;;;5.83;;
6223;SDS011;3145;42.726;23.342;2023-05-18T12:19:40;8.10;;;7.30;;
6223;SDS011;3145;42.726;23.342;2023-05-18T12:22:09;8.30;;;7.47;;
6223;SDS011;3145;42.726;23.342;2023-05-18T12:24:36;7.73;;;7.03;;
6223;SDS011;3145;42.726;23.342;2023-05-18T12:29:52;11.43;;;8.43;;
6223;SDS011;3145;42.726;23.342;2023-05-18T12:32:19;10.93;;;9.13;;
6223;SDS011;3145;42.726;23.342;2023-05-18T12:34:46;10.37;;;9.23;;
6223;SDS011;3145;42.726;23.342;2023-05-18T12:37:13;10.90;;;8.20;;
6223;SDS011;3145;42.726;23.342;2023-05-18T12:39:40;11.93;;;9.13;;
6223;SDS011;3145;42.726;23.342;2023-05-18T12:42:07;14.57;;;12.53;;
6223;SDS011;3145;42.726;23.342;2023-05-18T12:44:36;8.47;;;7.77;;
6223;SDS011;3145;42.726;23.342;2023-05-18T12:47:03;12.30;;;8.87;;
6223;SDS011;3145;42.726;23.342;2023-05-18T12:49:34;15.30;;;11.57;;
6223;SDS011;3145;42.726;23.342;2023-05-18T12:52:09;19.80;;;13.87;;
6223;SDS011;3145;42.726;23.342;2023-05-18T12:54:46;9.87;;;8.90;;
6223;SDS011;3145;42.726;23.342;2023-05-18T12:57:18;9.37;;;7.10;;
6223;SDS011;3145;42.726;23.342;2023-05-18T12:59:50;12.50;;;9.73;;
6223;SDS011;3145;42.726;23.342;2023-05-18T13:02:27;11.77;;;8.87;;
6223;SDS011;3145;42.726;23.342;2023-05-18T13:05:02;9.33;;;8.40;;
6223;SDS011;3145;42.726;23.342;2023-05-18T13:07:30;7.63;;;6.93;;
6223;SDS011;3145;42.726;23.342;2023-05-18T13:10:03;8.20;;;7.40;;
6223;SDS011;3145;42.726;23.342;2023-05-18T13:12:34;7.63;;;6.40;;
6223;SDS011;3145;42.726;23.342;2023-05-18T13:15:08;5.37;;;4.97;;
6223;SDS011;3145;42.726;23.342;2023-05-18T13:17:36;7.47;;;6.67;;
6223;SDS011;3145;42.726;23.342;2023-05-18T13:20:10;9.90;;;7.60;;
6223;SDS011;3145;42.726;23.342;2023-05-18T13:22:38;8.80;;;7.87;;
6223;SDS011;3145;42.726;23.342;2023-05-18T13:25:05;8.60;;;7.70;;
6223;SDS011;3145;42.726;23.342;2023-05-18T13:27:33;8.53;;;7.73;;
6223;SDS011;3145;42.726;23.342;2023-05-18T13:30:00;4.40;;;4.00;;
6223;SDS011;3145;42.726;23.342;2023-05-18T13:32:28;4.70;;;4.30;;
6223;SDS011;3145;42.726;23.342;2023-05-18T13:34:55;3.20;;;3.00;;
6223;SDS011;3145;42.726;23.342;2023-05-18T13:37:22;4.00;;;3.70;;
6223;SDS011;3145;42.726;23.342;2023-05-18T13:39:49;6.07;;;5.47;;
6223;SDS011;3145;42.726;23.342;2023-05-18T13:42:15;12.50;;;6.13;;
6223;SDS011;3145;42.726;23.342;2023-05-18T13:44:45;5.53;;;4.83;;
6223;SDS011;3145;42.726;23.342;2023-05-18T13:47:11;6.67;;;6.13;;
6223;SDS011;3145;42.726;23.342;2023-05-18T13:49:40;5.20;;;4.70;;
6223;SDS011;3145;42.726;23.342;2023-05-18T13:52:06;6.73;;;6.13;;
6223;SDS011;3145;42.726;23.342;2023-05-18T13:54:33;7.97;;;7.17;;
6223;SDS011;3145;42.726;23.342;2023-05-18T13:57:00;14.90;;;12.27;;
6223;SDS011;3145;42.726;23.342;2023-05-18T13:59:26;11.37;;;9.17;;
6223;SDS011;3145;42.726;23.342;2023-05-18T14:01:53;8.47;;;6.47;;
6223;SDS011;3145;42.726;23.342;2023-05-18T14:04:20;6.00;;;5.27;;
6223;SDS011;3145;42.726;23.342;2023-05-18T14:06:48;6.30;;;5.80;;
6223;SDS011;3145;42.726;23.342;2023-05-18T14:09:18;4.60;;;4.30;;
6223;SDS011;3145;42.726;23.342;2023-05-18T14:11:45;3.37;;;3.17;;
6223;SDS011;3145;42.726;23.342;2023-05-18T14:14:12;10.73;;;9.63;;
6223;SDS011;3145;42.726;23.342;2023-05-18T14:16:38;11.23;;;6.50;;
6223;SDS011;3145;42.726;23.342;2023-05-18T14:19:05;5.83;;;5.33;;
6223;SDS011;3145;42.726;23.342;2023-05-18T14:21:32;7.30;;;5.63;;
6223;SDS011;3145;42.726;23.342;2023-05-18T14:24:00;5.30;;;4.80;;
6223;SDS011;3145;42.726;23.342;2023-05-18T14:26:27;7.17;;;6.53;;
6223;SDS011;3145;42.726;23.342;2023-05-18T14:28:54;5.77;;;5.30;;
6223;SDS011;3145;42.726;23.342;2023-05-18T14:31:21;7.33;;;5.93;;
6223;SDS011;3145;42.726;23.342;2023-05-18T14:33:48;7.97;;;6.70;;
6223;SDS011;3145;42.726;23.342;2023-05-18T14:36:14;11.23;;;10.23;;
6223;SDS011;3145;42.726;23.342;2023-05-18T14:38:41;5.17;;;4.70;;
6223;SDS011;3145;42.726;23.342;2023-05-18T14:41:11;6.93;;;6.30;;
6223;SDS011;3145;42.726;23.342;2023-05-18T14:43:38;6.77;;;6.23;;
6223;SDS011;3145;42.726;23.342;2023-05-18T14:46:04;21.07;;;17.87;;
6223;SDS011;3145;42.726;23.342;2023-05-18T14:48:31;34.73;;;29.10;;
6223;SDS011;3145;42.726;23.342;2023-05-18T14:50:58;27.37;;;24.57;;
6223;SDS011;3145;42.726;23.342;2023-05-18T14:53:25;53.20;;;40.30;;
6223;SDS011;3145;42.726;23.342;2023-05-18T14:55:51;66.27;;;47.47;;
6223;SDS011;3145;42.726;23.342;2023-05-18T14:58:19;56.67;;;42.50;;
6223;SDS011;3145;42.726;23.342;2023-05-18T15:00:46;19.63;;;17.23;;
6223;SDS011;3145;42.726;23.342;2023-05-18T15:03:13;45.23;;;34.43;;
6223;SDS011;3145;42.726;23.342;2023-05-18T15:05:39;25.03;;;19.33;;